createdAt,value
2019-01-27T00:00:02.160Z,2.90
2019-01-27T00:02:32.334Z,2.70
2019-01-27T00:05:02.490Z,2.77
2019-01-27T00:07:32.668Z,3.07
2019-01-27T00:10:02.457Z,3.13
2019-01-27T00:12:32.496Z,2.73
2019-01-27T00:15:02.616Z,4.23
2019-01-27T00:17:34.108Z,3.00
2019-01-27T00:20:11.196Z,2.60
2019-01-27T00:22:47.956Z,3.00
2019-01-27T00:25:20.172Z,2.73
2019-01-27T00:27:57.723Z,2.83
2019-01-27T00:30:30.137Z,2.93
2019-01-27T00:33:01.110Z,2.70
2019-01-27T00:35:34.754Z,2.90
2019-01-27T00:38:06.444Z,2.20
2019-01-27T00:40:37.143Z,2.43
2019-01-27T00:43:12.092Z,2.80
2019-01-27T00:45:43.450Z,2.37
2019-01-27T00:48:17.417Z,2.27
2019-01-27T00:50:47.680Z,2.07
2019-01-27T00:53:17.628Z,2.70
2019-01-27T00:55:54.244Z,2.00
2019-01-27T00:58:24.091Z,2.17
2019-01-27T01:00:54.678Z,1.80
2019-01-27T01:03:24.694Z,2.00
2019-01-27T01:05:54.848Z,2.00
2019-01-27T01:08:24.942Z,2.50
2019-01-27T01:10:55.074Z,2.00
2019-01-27T01:13:25.413Z,1.90
2019-01-27T01:15:56.268Z,1.80
2019-01-27T01:18:34.413Z,2.47
2019-01-27T01:21:14.094Z,2.07
2019-01-27T01:23:43.901Z,1.77
2019-01-27T01:26:19.682Z,1.90
2019-01-27T01:28:49.890Z,2.07
2019-01-27T01:31:28.700Z,1.77
2019-01-27T01:34:01.742Z,2.33
2019-01-27T01:36:32.833Z,2.30
2019-01-27T01:39:13.065Z,2.20
2019-01-27T01:41:45.848Z,1.83
2019-01-27T01:44:15.647Z,1.97
2019-01-27T01:46:48.222Z,1.93
2019-01-27T01:49:27.476Z,2.30
2019-01-27T01:51:59.023Z,1.67
2019-01-27T01:54:29.509Z,2.50
2019-01-27T01:56:59.966Z,1.90
2019-01-27T01:59:30.082Z,1.53
2019-01-27T02:02:00.374Z,1.67
2019-01-27T02:04:30.219Z,1.70
2019-01-27T02:07:00.744Z,1.60
2019-01-27T02:09:30.763Z,1.60
2019-01-27T02:12:02.051Z,1.90
2019-01-27T02:14:32.025Z,1.77
2019-01-27T02:17:02.556Z,1.63
2019-01-27T02:19:32.977Z,1.53
2019-01-27T02:22:03.167Z,1.57
2019-01-27T02:24:33.326Z,1.60
2019-01-27T02:27:03.378Z,1.67
2019-01-27T02:29:33.780Z,1.50
2019-01-27T02:32:06.594Z,1.63
2019-01-27T02:34:36.678Z,2.50
2019-01-27T02:37:09.975Z,1.87
2019-01-27T02:39:45.402Z,1.67
2019-01-27T02:42:15.270Z,1.40
2019-01-27T02:44:47.446Z,1.70
2019-01-27T02:47:17.684Z,1.60
2019-01-27T02:49:47.794Z,1.40
2019-01-27T02:52:17.678Z,1.60
2019-01-27T02:54:48.151Z,1.20
2019-01-27T02:57:18.973Z,1.93
2019-01-27T02:59:49.476Z,1.60
2019-01-27T03:02:19.837Z,1.23
2019-01-27T03:04:49.919Z,1.30
2019-01-27T03:07:29.622Z,1.10
2019-01-27T03:09:59.790Z,1.20
2019-01-27T03:12:30.068Z,1.30
2019-01-27T03:15:00.028Z,1.20
2019-01-27T03:17:38.631Z,1.30
2019-01-27T03:20:14.082Z,1.30
2019-01-27T03:22:44.511Z,1.10
2019-01-27T03:25:14.668Z,1.87
2019-01-27T03:27:45.108Z,1.20
2019-01-27T03:30:17.427Z,1.50
2019-01-27T03:32:47.381Z,1.07
2019-01-27T03:35:17.775Z,1.10
2019-01-27T03:37:47.857Z,1.20
2019-01-27T03:40:17.963Z,1.30
2019-01-27T03:42:47.965Z,1.23
2019-01-27T03:45:18.427Z,1.10
2019-01-27T03:47:54.589Z,1.10
2019-01-27T03:50:26.346Z,1.20
2019-01-27T03:53:00.066Z,1.13
2019-01-27T03:55:30.516Z,1.20
2019-01-27T03:58:00.536Z,3.10
2019-01-27T04:00:33.202Z,2.00
2019-01-27T04:03:06.253Z,1.20
2019-01-27T04:05:36.613Z,1.47
2019-01-27T04:08:07.693Z,1.30
2019-01-27T04:10:41.236Z,1.20
2019-01-27T04:13:11.501Z,1.40
2019-01-27T04:15:56.761Z,1.37
2019-01-27T04:18:26.848Z,1.30
2019-01-27T04:20:58.375Z,1.30
2019-01-27T04:23:31.557Z,1.20
2019-01-27T04:26:01.826Z,1.30
2019-01-27T04:28:31.876Z,1.43
2019-01-27T04:31:01.937Z,1.30
2019-01-27T04:33:32.033Z,1.37
2019-01-27T04:36:02.627Z,1.30
2019-01-27T04:38:33.121Z,1.10
2019-01-27T04:41:03.277Z,1.27
2019-01-27T04:43:32.954Z,1.27
2019-01-27T04:46:03.006Z,1.30
2019-01-27T04:48:32.928Z,1.67
2019-01-27T04:51:03.261Z,1.60
2019-01-27T04:53:32.720Z,1.33
2019-01-27T04:56:02.699Z,1.37
2019-01-27T04:58:32.453Z,1.30
2019-01-27T05:01:10.118Z,1.07
2019-01-27T05:04:13.867Z,1.07
2019-01-27T05:06:44.478Z,1.03
2019-01-27T05:09:16.874Z,1.20
2019-01-27T05:11:47.007Z,1.30
2019-01-27T05:14:17.876Z,1.23
2019-01-27T05:16:55.120Z,1.10
2019-01-27T05:19:25.943Z,1.20
2019-01-27T05:21:58.876Z,1.53
2019-01-27T05:24:30.473Z,1.80
2019-01-27T05:27:04.283Z,1.00
2019-01-27T05:29:34.323Z,1.47
2019-01-27T05:32:04.486Z,1.17
2019-01-27T05:34:40.427Z,1.50
2019-01-27T05:37:10.970Z,1.10
2019-01-27T05:39:41.964Z,1.03
2019-01-27T05:42:12.443Z,1.20
2019-01-27T05:45:03.907Z,1.10
2019-01-27T05:47:39.102Z,1.53
2019-01-27T05:50:14.289Z,2.60
2019-01-27T05:52:46.441Z,1.50
2019-01-27T05:55:17.933Z,1.30
2019-01-27T05:57:49.457Z,1.30
2019-01-27T06:00:26.511Z,1.40
2019-01-27T06:02:57.037Z,1.30
2019-01-27T06:05:29.278Z,1.40
2019-01-27T06:08:00.023Z,1.40
2019-01-27T06:10:33.556Z,1.30
2019-01-27T06:13:04.245Z,1.30
2019-01-27T06:15:34.655Z,1.20
2019-01-27T06:18:04.856Z,1.10
2019-01-27T06:20:37.025Z,1.23
2019-01-27T06:23:10.135Z,1.10
2019-01-27T06:25:48.610Z,1.20
2019-01-27T06:28:19.891Z,1.40
2019-01-27T06:30:58.219Z,1.20
2019-01-27T06:33:49.495Z,1.30
2019-01-27T06:36:22.452Z,1.10
2019-01-27T06:39:00.202Z,1.50
2019-01-27T06:41:37.193Z,1.27
2019-01-27T06:44:07.726Z,1.30
2019-01-27T06:46:40.139Z,1.00
2019-01-27T06:49:11.300Z,1.10
2019-01-27T06:51:43.673Z,1.03
2019-01-27T06:54:13.138Z,1.17
2019-01-27T07:12:37.629Z,1.20
2019-01-27T07:14:12.529Z,1.27
2019-01-27T07:16:59.662Z,1.33
2019-01-27T07:19:56.377Z,1.23
2019-01-27T07:22:45.320Z,1.50
2019-01-27T07:25:34.823Z,1.50
2019-01-27T07:28:32.585Z,1.53
2019-01-27T07:31:30.163Z,1.67
2019-01-27T07:34:13.666Z,3.63
2019-01-27T07:37:08.307Z,2.60
2019-01-27T07:39:56.075Z,1.80
2019-01-27T07:42:54.144Z,1.50
2019-01-27T07:45:46.444Z,1.90
2019-01-27T07:48:39.576Z,1.80
2019-01-27T07:51:47.440Z,1.53
2019-01-27T07:54:38.993Z,2.20
2019-01-27T07:57:29.595Z,1.80
2019-01-27T08:00:24.247Z,2.70
2019-01-27T08:03:00.002Z,2.17
2019-01-27T08:05:54.851Z,2.13
2019-01-27T08:08:33.149Z,1.80
2019-01-27T08:11:20.842Z,1.97
2019-01-27T08:14:07.820Z,3.00
2019-01-27T08:17:03.609Z,3.40
2019-01-27T08:19:40.875Z,3.40
2019-01-27T08:22:40.666Z,3.92
2019-01-27T08:25:37.404Z,3.73
2019-01-27T08:28:43.009Z,4.33
2019-01-27T08:31:22.452Z,3.70
2019-01-27T08:34:13.870Z,3.37
2019-01-27T08:37:00.078Z,2.77
2019-01-27T08:39:41.211Z,3.20
2019-01-27T08:42:29.261Z,5.07
2019-01-27T08:45:16.649Z,3.67
2019-01-27T08:47:50.195Z,4.10
2019-01-27T08:50:38.499Z,4.10
2019-01-27T08:53:21.721Z,3.93
2019-01-27T08:55:59.414Z,3.60
2019-01-27T08:58:37.360Z,4.20
2019-01-27T09:04:31.438Z,5.20
2019-01-27T09:07:17.416Z,6.27
2019-01-27T09:10:04.538Z,6.23
2019-01-27T09:12:53.464Z,5.07
2019-01-27T09:15:51.913Z,6.03
2019-01-27T09:18:56.655Z,5.40
2019-01-27T09:22:27.490Z,5.93
2019-01-27T09:29:31.047Z,4.90
2019-01-27T09:32:40.825Z,5.20
2019-01-27T09:35:38.574Z,6.87
2019-01-27T09:38:26.550Z,6.60
2019-01-27T09:41:24.611Z,6.27
2019-01-27T09:44:23.834Z,6.03
2019-01-27T09:47:12.382Z,5.43
2019-01-27T09:50:10.288Z,7.07
2019-01-27T09:53:03.048Z,5.70
2019-01-27T09:55:51.885Z,6.43
2019-01-27T09:58:39.779Z,7.00
2019-01-27T10:01:38.610Z,6.53
2019-01-27T10:04:51.146Z,7.20
2019-01-27T10:07:34.432Z,5.43
2019-01-27T10:10:33.269Z,6.00
2019-01-27T10:13:10.698Z,5.10
2019-01-27T10:16:17.655Z,5.50
2019-01-27T10:19:31.043Z,3.93
2019-01-27T10:22:32.299Z,4.00
2019-01-27T10:26:09.372Z,3.67
2019-01-27T10:29:42.392Z,6.00
2019-01-27T10:35:48.478Z,4.77
2019-01-27T10:38:35.052Z,4.70
2019-01-27T10:41:11.755Z,3.57
2019-01-27T10:43:54.612Z,4.20
2019-01-27T10:47:33.562Z,3.87
2019-01-27T10:49:30.777Z,3.57
2019-01-27T10:52:27.243Z,4.37
2019-01-27T10:55:34.463Z,2.30
2019-01-27T10:58:35.269Z,2.50
2019-01-27T11:01:39.051Z,3.23
2019-01-27T11:04:36.888Z,1.93
2019-01-27T11:10:35.149Z,1.90
2019-01-27T11:13:20.550Z,2.33
2019-01-27T11:16:18.116Z,2.03
2019-01-27T11:19:23.900Z,1.87
2019-01-27T11:22:28.937Z,2.00
2019-01-27T11:25:30.617Z,2.33
2019-01-27T11:28:29.581Z,1.90
2019-01-27T11:31:24.443Z,2.00
2019-01-27T11:34:48.533Z,2.17
2019-01-27T11:37:47.494Z,2.30
2019-01-27T11:40:40.022Z,1.50
2019-01-27T11:43:45.081Z,2.20
2019-01-27T11:46:35.130Z,1.90
2019-01-27T11:49:14.224Z,2.10
2019-01-27T11:52:18.214Z,1.13
2019-01-27T11:54:48.962Z,1.10
2019-01-27T11:57:19.148Z,1.10
2019-01-27T12:00:11.217Z,1.53
2019-01-27T12:02:46.670Z,2.37
2019-01-27T12:05:32.574Z,2.20
2019-01-27T12:08:05.741Z,2.57
2019-01-27T12:10:38.558Z,2.17
2019-01-27T12:13:09.966Z,3.00
2019-01-27T12:15:40.121Z,1.73
2019-01-27T12:18:14.503Z,1.77
2019-01-27T12:20:47.961Z,2.03
2019-01-27T12:23:18.106Z,3.10
2019-01-27T12:25:52.479Z,1.80
2019-01-27T12:28:28.173Z,2.10
2019-01-27T12:30:58.486Z,1.50
2019-01-27T12:33:29.444Z,1.00
2019-01-27T12:35:59.781Z,1.00
2019-01-27T12:38:31.480Z,1.60
2019-01-27T12:41:05.145Z,1.27
2019-01-27T12:43:38.064Z,1.67
2019-01-27T12:46:08.639Z,1.30
2019-01-27T12:48:39.554Z,3.63
2019-01-27T12:51:10.479Z,1.90
2019-01-27T12:53:41.263Z,1.40
2019-01-27T12:56:12.684Z,1.40
2019-01-27T12:58:43.462Z,1.70
2019-01-27T13:04:09.719Z,1.77
2019-01-27T13:06:41.138Z,1.40
2019-01-27T13:09:11.819Z,1.90
2019-01-27T13:11:42.490Z,1.30
2019-01-27T13:14:13.147Z,1.00
2019-01-27T13:16:44.908Z,2.40
2019-01-27T13:19:14.770Z,1.00
2019-01-27T13:21:45.523Z,1.30
2019-01-27T13:24:17.344Z,1.70
2019-01-27T13:26:50.275Z,0.97
2019-01-27T13:29:30.314Z,0.90
2019-01-27T13:32:01.955Z,1.47
2019-01-27T13:34:33.427Z,1.47
2019-01-27T13:37:03.977Z,1.37
2019-01-27T13:39:40.328Z,1.40
2019-01-27T13:42:15.871Z,1.30
2019-01-27T13:44:51.864Z,1.47
2019-01-27T13:47:26.024Z,1.40
2019-01-27T13:49:57.420Z,2.77
2019-01-27T13:52:31.640Z,2.57
2019-01-27T13:55:05.630Z,1.23
2019-01-27T13:57:41.002Z,1.50
2019-01-27T14:00:15.419Z,1.43
2019-01-27T14:02:46.559Z,1.23
2019-01-27T14:05:24.192Z,1.30
2019-01-27T14:07:55.113Z,1.30
2019-01-27T14:10:30.379Z,1.30
2019-01-27T14:13:08.437Z,1.70
2019-01-27T14:15:39.557Z,1.30
2019-01-27T14:18:11.058Z,2.17
2019-01-27T14:20:41.838Z,1.50
2019-01-27T14:23:14.178Z,1.53
2019-01-27T14:25:45.684Z,1.10
2019-01-27T14:28:16.966Z,0.90
2019-01-27T14:30:51.396Z,1.00
2019-01-27T14:33:21.841Z,1.70
2019-01-27T14:35:52.008Z,1.20
2019-01-27T14:38:22.773Z,1.00
2019-01-27T14:40:56.302Z,1.30
2019-01-27T14:43:30.784Z,1.27
2019-01-27T14:46:10.756Z,1.97
2019-01-27T14:54:58.863Z,1.57
2019-01-27T14:57:00.691Z,1.07
2019-01-27T14:59:45.067Z,1.40
2019-01-27T15:02:31.368Z,1.40
2019-01-27T15:05:23.055Z,1.20
2019-01-27T15:08:45.787Z,1.00
2019-01-27T15:11:05.229Z,4.80
2019-01-27T15:13:48.866Z,1.90
2019-01-27T15:16:22.468Z,1.20
2019-01-27T15:19:02.242Z,1.43
2019-01-27T15:21:39.688Z,1.30
2019-01-27T15:24:11.041Z,1.53
2019-01-27T15:26:46.550Z,1.40
2019-01-27T15:29:24.931Z,1.20
2019-01-27T15:32:01.536Z,1.70
2019-01-27T15:35:01.256Z,1.20
2019-01-27T15:37:45.746Z,1.43
2019-01-27T15:40:45.445Z,1.70
2019-01-27T15:43:17.337Z,2.50
2019-01-27T15:45:57.684Z,2.00
2019-01-27T15:48:39.142Z,1.70
2019-01-27T15:51:34.645Z,2.07
2019-01-27T15:54:36.489Z,2.50
2019-01-27T15:57:07.631Z,2.00
2019-01-27T16:00:13.580Z,3.40
2019-01-27T16:03:26.105Z,2.27
2019-01-27T16:09:14.236Z,1.83
2019-01-27T16:12:07.881Z,2.00
2019-01-27T16:14:38.672Z,1.60
2019-01-27T16:17:10.239Z,1.50
2019-01-27T16:19:45.150Z,1.50
2019-01-27T16:22:29.101Z,1.57
2019-01-27T16:25:00.536Z,1.40
2019-01-27T16:27:35.469Z,1.40
2019-01-27T16:30:24.605Z,1.70
2019-01-27T16:33:07.371Z,1.67
2019-01-27T16:35:37.941Z,1.80
2019-01-27T16:38:09.669Z,1.40
2019-01-27T16:40:41.453Z,1.07
2019-01-27T16:43:13.235Z,1.50
2019-01-27T16:45:50.505Z,1.30
2019-01-27T16:48:23.357Z,1.50
2019-01-27T16:50:58.202Z,1.60
2019-01-27T16:53:29.318Z,1.50
2019-01-27T16:56:03.045Z,1.10
2019-01-27T16:58:45.800Z,1.20
2019-01-27T17:01:19.543Z,1.10
2019-01-27T17:03:53.793Z,1.10
2019-01-27T17:06:25.808Z,1.00
2019-01-27T17:12:29.105Z,1.70
2019-01-27T17:14:59.624Z,2.00
2019-01-27T17:17:54.335Z,1.67
2019-01-27T17:20:25.945Z,2.00
2019-01-27T17:23:26.445Z,1.50
2019-01-27T17:26:00.235Z,1.40
2019-01-27T17:28:31.729Z,1.30
2019-01-27T17:31:13.042Z,1.70
2019-01-27T17:33:43.985Z,1.85
2019-01-27T17:36:14.863Z,1.70
2019-01-27T17:38:46.038Z,1.73
2019-01-27T17:41:21.223Z,2.87
2019-01-27T17:43:59.694Z,3.37
2019-01-27T17:46:30.582Z,11.87
2019-01-27T17:49:01.802Z,2.87
2019-01-27T17:51:37.260Z,3.40
2019-01-27T17:54:12.412Z,3.47
2019-01-27T17:56:51.272Z,3.33
2019-01-27T17:59:46.783Z,2.80
2019-01-27T18:02:49.841Z,4.07
2019-01-27T18:05:59.331Z,4.50
2019-01-27T18:08:54.603Z,3.23
2019-01-27T18:12:00.766Z,3.73
2019-01-27T18:14:47.154Z,4.70
2019-01-27T18:17:17.895Z,3.20
2019-01-27T18:19:49.477Z,3.80
2019-01-27T18:22:20.727Z,4.70
2019-01-27T18:24:57.943Z,4.30
2019-01-27T18:30:59.756Z,4.30
2019-01-27T18:33:32.603Z,4.33
2019-01-27T18:36:04.987Z,4.70
2019-01-27T18:38:39.664Z,3.33
2019-01-27T18:41:11.138Z,3.10
2019-01-27T18:43:45.934Z,2.80
2019-01-27T18:46:28.031Z,4.00
2019-01-27T18:49:33.589Z,3.00
2019-01-27T18:52:08.596Z,2.77
2019-01-27T18:59:06.905Z,2.43
2019-01-27T19:02:09.572Z,2.57
2019-01-27T19:22:27.595Z,3.33
2019-01-27T19:28:41.754Z,3.70
2019-01-27T19:31:31.031Z,4.20
2019-01-27T19:37:53.854Z,3.77
2019-01-27T19:40:43.599Z,2.90
2019-01-27T19:43:41.864Z,2.83
2019-01-27T19:46:45.385Z,4.80
2019-01-27T19:49:35.206Z,2.90
2019-01-27T19:52:23.029Z,5.43
2019-01-27T19:55:49.008Z,6.13
2019-01-27T20:01:55.529Z,1.67
2019-01-27T20:04:48.824Z,0.90
2019-01-27T20:07:46.563Z,0.80
2019-01-27T20:11:04.695Z,1.00
2019-01-27T20:14:13.159Z,0.80
2019-01-27T20:17:05.301Z,0.80
2019-01-27T20:19:54.773Z,1.17
2019-01-27T20:23:08.838Z,1.00
2019-01-27T20:25:55.234Z,0.80
2019-01-27T20:28:49.754Z,0.90
2019-01-27T20:31:58.803Z,0.80
2019-01-27T20:35:11.495Z,1.27
2019-01-27T20:37:51.023Z,2.40
2019-01-27T20:40:54.319Z,0.83
2019-01-27T20:43:54.436Z,1.47
2019-01-27T20:46:54.054Z,0.73
2019-01-27T20:50:11.273Z,2.30
2019-01-27T20:53:09.281Z,1.20
2019-01-27T21:02:08.095Z,1.27
2019-01-27T21:04:58.036Z,1.20
2019-01-27T21:08:10.282Z,1.50
2019-01-27T21:11:06.895Z,1.20
2019-01-27T21:14:15.140Z,1.07
2019-01-27T21:16:59.809Z,0.97
2019-01-27T21:20:01.564Z,1.00
2019-01-27T21:22:40.658Z,1.00
2019-01-27T21:25:17.037Z,1.23
2019-01-27T21:27:48.903Z,0.90
2019-01-27T21:30:22.651Z,1.00
2019-01-27T21:32:56.362Z,1.20
2019-01-27T21:35:29.065Z,1.00
2019-01-27T21:38:08.835Z,1.10
2019-01-27T21:40:42.870Z,1.00
2019-01-27T21:43:16.861Z,1.30
2019-01-27T21:45:46.943Z,1.20
2019-01-27T21:48:36.272Z,1.30
2019-01-27T21:51:11.894Z,1.60
2019-01-27T21:54:12.686Z,1.00
2019-01-27T21:56:44.019Z,1.10
2019-01-27T21:59:14.825Z,0.90
2019-01-27T22:01:48.262Z,0.90
2019-01-27T22:04:41.071Z,0.90
2019-01-27T22:07:03.541Z,1.13
2019-01-27T22:09:56.242Z,1.00
2019-01-27T22:12:33.877Z,0.90
2019-01-27T22:15:05.249Z,1.17
2019-01-27T22:17:41.538Z,1.40
2019-01-27T22:20:18.099Z,1.20
2019-01-27T22:22:46.391Z,1.05
2019-01-27T22:25:32.593Z,1.20
2019-01-27T22:28:03.123Z,1.20
2019-01-27T22:30:33.309Z,1.13
2019-01-27T22:33:03.258Z,1.23
2019-01-27T22:35:33.839Z,1.10
2019-01-27T22:38:45.853Z,1.20
2019-01-27T22:41:17.042Z,1.53
2019-01-27T22:43:50.447Z,1.33
2019-01-27T22:46:20.669Z,1.57
2019-01-27T22:48:50.633Z,1.20
2019-01-27T22:51:21.147Z,1.23
2019-01-27T22:54:10.016Z,1.30
2019-01-27T22:57:02.830Z,1.37
2019-01-27T23:03:03.709Z,1.37
2019-01-27T23:05:34.266Z,1.47
2019-01-27T23:08:20.114Z,1.87
2019-01-27T23:10:53.191Z,1.50
2019-01-27T23:13:25.176Z,1.70
2019-01-27T23:15:56.054Z,1.60
2019-01-27T23:18:29.692Z,2.00
2019-01-27T23:20:59.890Z,1.73
2019-01-27T23:23:32.600Z,1.40
2019-01-27T23:26:02.573Z,1.67
2019-01-27T23:28:34.475Z,2.10
2019-01-27T23:31:07.734Z,1.77
2019-01-27T23:33:37.424Z,1.80
2019-01-27T23:36:08.123Z,2.53
2019-01-27T23:38:41.820Z,1.80
2019-01-27T23:41:13.316Z,1.90
2019-01-27T23:43:45.840Z,2.27
2019-01-27T23:46:19.313Z,1.80
2019-01-27T23:48:50.976Z,2.47
2019-01-27T23:51:28.152Z,2.23
2019-01-27T23:53:58.851Z,1.93
2019-01-27T23:56:30.763Z,2.63
2019-01-27T23:59:01.775Z,2.40
